sensor_id;sensor_type;location;lat;lon;timestamp;P1;durP1;ratioP1;P2;durP2;ratioP2
36855;SDS011;22788;51.434;6.786;2023-03-13T00:01:23;7.40;;;3.00;;
36855;SDS011;22788;51.434;6.786;2023-03-13T00:03:51;9.67;;;3.13;;
36855;SDS011;22788;51.434;6.786;2023-03-13T00:06:18;14.00;;;3.10;;
36855;SDS011;22788;51.434;6.786;2023-03-13T00:08:44;8.50;;;2.87;;
36855;SDS011;22788;51.434;6.786;2023-03-13T00:11:11;15.30;;;3.90;;
36855;SDS011;22788;51.434;6.786;2023-03-13T00:13:38;8.97;;;3.10;;
36855;SDS011;22788;51.434;6.786;2023-03-13T00:16:05;8.07;;;2.77;;
36855;SDS011;22788;51.434;6.786;2023-03-13T00:18:33;11.00;;;3.23;;
36855;SDS011;22788;51.434;6.786;2023-03-13T00:20:59;8.40;;;3.17;;
36855;SDS011;22788;51.434;6.786;2023-03-13T00:23:27;9.93;;;3.30;;
36855;SDS011;22788;51.434;6.786;2023-03-13T00:25:57;9.23;;;2.90;;
36855;SDS011;22788;51.434;6.786;2023-03-13T00:28:24;7.10;;;2.77;;
36855;SDS011;22788;51.434;6.786;2023-03-13T00:30:58;11.77;;;3.73;;
36855;SDS011;22788;51.434;6.786;2023-03-13T00:33:25;8.30;;;2.77;;
36855;SDS011;22788;51.434;6.786;2023-03-13T00:35:51;11.13;;;2.80;;
36855;SDS011;22788;51.434;6.786;2023-03-13T00:38:17;11.93;;;3.90;;
36855;SDS011;22788;51.434;6.786;2023-03-13T00:40:44;17.37;;;4.03;;
36855;SDS011;22788;51.434;6.786;2023-03-13T00:43:10;7.83;;;3.00;;
36855;SDS011;22788;51.434;6.786;2023-03-13T00:45:36;9.10;;;3.30;;
36855;SDS011;22788;51.434;6.786;2023-03-13T00:48:02;5.37;;;2.43;;
36855;SDS011;22788;51.434;6.786;2023-03-13T00:50:29;8.67;;;2.67;;
36855;SDS011;22788;51.434;6.786;2023-03-13T00:52:55;10.30;;;3.00;;
36855;SDS011;22788;51.434;6.786;2023-03-13T00:55:21;11.60;;;2.57;;
36855;SDS011;22788;51.434;6.786;2023-03-13T00:57:48;6.80;;;2.73;;
36855;SDS011;22788;51.434;6.786;2023-03-13T01:00:15;10.17;;;3.20;;
36855;SDS011;22788;51.434;6.786;2023-03-13T01:02:41;7.80;;;3.37;;
36855;SDS011;22788;51.434;6.786;2023-03-13T01:05:08;9.57;;;3.00;;
36855;SDS011;22788;51.434;6.786;2023-03-13T01:07:34;4.63;;;2.50;;
36855;SDS011;22788;51.434;6.786;2023-03-13T01:10:00;8.50;;;3.13;;
36855;SDS011;22788;51.434;6.786;2023-03-13T01:12:26;11.60;;;3.27;;
36855;SDS011;22788;51.434;6.786;2023-03-13T01:14:55;6.20;;;2.67;;
36855;SDS011;22788;51.434;6.786;2023-03-13T01:17:21;8.60;;;3.23;;
36855;SDS011;22788;51.434;6.786;2023-03-13T01:19:47;9.40;;;3.13;;
36855;SDS011;22788;51.434;6.786;2023-03-13T01:22:13;12.47;;;3.37;;
36855;SDS011;22788;51.434;6.786;2023-03-13T01:24:39;8.87;;;2.70;;
36855;SDS011;22788;51.434;6.786;2023-03-13T01:27:05;12.83;;;3.10;;
36855;SDS011;22788;51.434;6.786;2023-03-13T01:29:31;9.70;;;2.90;;
36855;SDS011;22788;51.434;6.786;2023-03-13T01:31:58;6.03;;;3.03;;
36855;SDS011;22788;51.434;6.786;2023-03-13T01:34:24;9.93;;;3.40;;
36855;SDS011;22788;51.434;6.786;2023-03-13T01:36:50;4.97;;;2.53;;
36855;SDS011;22788;51.434;6.786;2023-03-13T01:39:16;8.87;;;2.50;;
36855;SDS011;22788;51.434;6.786;2023-03-13T01:41:42;8.73;;;2.67;;
36855;SDS011;22788;51.434;6.786;2023-03-13T01:44:13;8.53;;;3.10;;
36855;SDS011;22788;51.434;6.786;2023-03-13T01:46:46;10.70;;;2.70;;
36855;SDS011;22788;51.434;6.786;2023-03-13T01:49:14;9.73;;;2.67;;
36855;SDS011;22788;51.434;6.786;2023-03-13T01:51:43;8.33;;;2.87;;
36855;SDS011;22788;51.434;6.786;2023-03-13T01:54:12;9.47;;;2.70;;
36855;SDS011;22788;51.434;6.786;2023-03-13T01:56:42;5.27;;;2.60;;
36855;SDS011;22788;51.434;6.786;2023-03-13T01:59:13;6.93;;;2.90;;
36855;SDS011;22788;51.434;6.786;2023-03-13T02:01:42;6.80;;;2.40;;
36855;SDS011;22788;51.434;6.786;2023-03-13T02:04:11;8.67;;;3.27;;
36855;SDS011;22788;51.434;6.786;2023-03-13T02:06:40;13.87;;;3.33;;
36855;SDS011;22788;51.434;6.786;2023-03-13T02:09:10;7.50;;;2.87;;
36855;SDS011;22788;51.434;6.786;2023-03-13T02:11:43;8.00;;;2.77;;
36855;SDS011;22788;51.434;6.786;2023-03-13T02:14:13;8.40;;;2.83;;
36855;SDS011;22788;51.434;6.786;2023-03-13T02:16:41;7.60;;;3.13;;
36855;SDS011;22788;51.434;6.786;2023-03-13T02:19:13;10.50;;;2.53;;
36855;SDS011;22788;51.434;6.786;2023-03-13T02:21:46;8.43;;;2.83;;
36855;SDS011;22788;51.434;6.786;2023-03-13T02:24:20;6.47;;;2.80;;
36855;SDS011;22788;51.434;6.786;2023-03-13T02:26:55;8.83;;;3.10;;
36855;SDS011;22788;51.434;6.786;2023-03-13T02:29:21;6.00;;;2.37;;
36855;SDS011;22788;51.434;6.786;2023-03-13T02:31:49;8.93;;;2.90;;
36855;SDS011;22788;51.434;6.786;2023-03-13T02:34:17;11.43;;;3.57;;
36855;SDS011;22788;51.434;6.786;2023-03-13T02:36:45;13.80;;;3.50;;
36855;SDS011;22788;51.434;6.786;2023-03-13T02:39:13;11.53;;;2.87;;
36855;SDS011;22788;51.434;6.786;2023-03-13T02:41:42;6.20;;;2.47;;
36855;SDS011;22788;51.434;6.786;2023-03-13T02:44:11;11.20;;;2.53;;
36855;SDS011;22788;51.434;6.786;2023-03-13T02:46:44;4.47;;;2.30;;
36855;SDS011;22788;51.434;6.786;2023-03-13T02:49:21;10.93;;;3.40;;
36855;SDS011;22788;51.434;6.786;2023-03-13T02:51:49;8.23;;;2.97;;
36855;SDS011;22788;51.434;6.786;2023-03-13T02:54:18;4.67;;;2.50;;
36855;SDS011;22788;51.434;6.786;2023-03-13T02:56:47;8.73;;;3.23;;
36855;SDS011;22788;51.434;6.786;2023-03-13T02:59:17;6.27;;;3.17;;
36855;SDS011;22788;51.434;6.786;2023-03-13T03:01:43;4.53;;;2.37;;
36855;SDS011;22788;51.434;6.786;2023-03-13T03:04:09;6.87;;;2.93;;
36855;SDS011;22788;51.434;6.786;2023-03-13T03:06:35;10.63;;;2.90;;
36855;SDS011;22788;51.434;6.786;2023-03-13T03:09:02;5.87;;;2.40;;
36855;SDS011;22788;51.434;6.786;2023-03-13T03:11:29;9.93;;;2.53;;
36855;SDS011;22788;51.434;6.786;2023-03-13T03:13:55;5.90;;;2.87;;
36855;SDS011;22788;51.434;6.786;2023-03-13T03:16:22;8.50;;;2.70;;
36855;SDS011;22788;51.434;6.786;2023-03-13T03:18:48;5.03;;;2.60;;
36855;SDS011;22788;51.434;6.786;2023-03-13T03:21:14;3.33;;;2.10;;
36855;SDS011;22788;51.434;6.786;2023-03-13T03:23:40;12.83;;;2.27;;
36855;SDS011;22788;51.434;6.786;2023-03-13T03:26:06;6.13;;;2.37;;
36855;SDS011;22788;51.434;6.786;2023-03-13T03:28:32;7.33;;;2.40;;
36855;SDS011;22788;51.434;6.786;2023-03-13T03:31:02;9.10;;;2.87;;
36855;SDS011;22788;51.434;6.786;2023-03-13T03:33:30;8.13;;;2.30;;
36855;SDS011;22788;51.434;6.786;2023-03-13T03:35:58;8.53;;;2.87;;
36855;SDS011;22788;51.434;6.786;2023-03-13T03:38:24;4.93;;;2.20;;
36855;SDS011;22788;51.434;6.786;2023-03-13T03:40:50;6.07;;;1.97;;
36855;SDS011;22788;51.434;6.786;2023-03-13T03:43:16;8.87;;;2.40;;
36855;SDS011;22788;51.434;6.786;2023-03-13T03:45:42;5.13;;;2.10;;
36855;SDS011;22788;51.434;6.786;2023-03-13T03:48:08;3.50;;;1.90;;
36855;SDS011;22788;51.434;6.786;2023-03-13T03:50:36;3.77;;;1.93;;
36855;SDS011;22788;51.434;6.786;2023-03-13T03:53:02;10.87;;;2.10;;
36855;SDS011;22788;51.434;6.786;2023-03-13T03:55:28;6.10;;;2.23;;
36855;SDS011;22788;51.434;6.786;2023-03-13T03:57:54;5.90;;;1.93;;
36855;SDS011;22788;51.434;6.786;2023-03-13T04:00:20;5.57;;;2.57;;
36855;SDS011;22788;51.434;6.786;2023-03-13T04:02:46;7.50;;;2.30;;
36855;SDS011;22788;51.434;6.786;2023-03-13T04:05:12;2.93;;;1.97;;
36855;SDS011;22788;51.434;6.786;2023-03-13T04:07:40;5.47;;;2.00;;
36855;SDS011;22788;51.434;6.786;2023-03-13T04:10:06;8.03;;;1.97;;
36855;SDS011;22788;51.434;6.786;2023-03-13T04:12:33;5.03;;;1.87;;
36855;SDS011;22788;51.434;6.786;2023-03-13T04:14:59;8.37;;;2.33;;
36855;SDS011;22788;51.434;6.786;2023-03-13T04:17:25;5.73;;;2.03;;
36855;SDS011;22788;51.434;6.786;2023-03-13T04:19:51;3.73;;;1.77;;
36855;SDS011;22788;51.434;6.786;2023-03-13T04:22:17;4.47;;;2.17;;
36855;SDS011;22788;51.434;6.786;2023-03-13T04:24:45;5.67;;;1.93;;
36855;SDS011;22788;51.434;6.786;2023-03-13T04:27:11;3.07;;;1.80;;
36855;SDS011;22788;51.434;6.786;2023-03-13T04:29:37;5.00;;;1.97;;
36855;SDS011;22788;51.434;6.786;2023-03-13T04:32:03;4.83;;;1.90;;
36855;SDS011;22788;51.434;6.786;2023-03-13T04:34:30;2.57;;;1.57;;
36855;SDS011;22788;51.434;6.786;2023-03-13T04:36:56;4.57;;;2.00;;
36855;SDS011;22788;51.434;6.786;2023-03-13T04:39:22;4.47;;;1.80;;
36855;SDS011;22788;51.434;6.786;2023-03-13T04:41:50;6.83;;;2.57;;
36855;SDS011;22788;51.434;6.786;2023-03-13T04:44:16;5.40;;;2.60;;
36855;SDS011;22788;51.434;6.786;2023-03-13T04:46:42;6.50;;;2.83;;
36855;SDS011;22788;51.434;6.786;2023-03-13T04:49:08;6.17;;;3.57;;
36855;SDS011;22788;51.434;6.786;2023-03-13T04:51:34;6.83;;;2.53;;
36855;SDS011;22788;51.434;6.786;2023-03-13T04:54:00;7.77;;;3.13;;
36855;SDS011;22788;51.434;6.786;2023-03-13T04:56:26;5.20;;;2.73;;
36855;SDS011;22788;51.434;6.786;2023-03-13T04:58:54;5.60;;;2.40;;
36855;SDS011;22788;51.434;6.786;2023-03-13T05:01:20;4.73;;;2.30;;
36855;SDS011;22788;51.434;6.786;2023-03-13T05:03:46;6.10;;;2.40;;
36855;SDS011;22788;51.434;6.786;2023-03-13T05:06:12;4.73;;;2.80;;
36855;SDS011;22788;51.434;6.786;2023-03-13T05:08:38;4.93;;;2.80;;
36855;SDS011;22788;51.434;6.786;2023-03-13T05:11:04;6.17;;;2.73;;
36855;SDS011;22788;51.434;6.786;2023-03-13T05:13:30;4.80;;;3.10;;
36855;SDS011;22788;51.434;6.786;2023-03-13T05:15:58;6.93;;;2.80;;
36855;SDS011;22788;51.434;6.786;2023-03-13T05:18:24;4.03;;;2.33;;
36855;SDS011;22788;51.434;6.786;2023-03-13T05:20:50;7.63;;;2.13;;
36855;SDS011;22788;51.434;6.786;2023-03-13T05:23:16;5.77;;;2.80;;
36855;SDS011;22788;51.434;6.786;2023-03-13T05:25:42;3.80;;;2.07;;
36855;SDS011;22788;51.434;6.786;2023-03-13T05:28:08;4.70;;;2.80;;
36855;SDS011;22788;51.434;6.786;2023-03-13T05:30:34;6.90;;;2.67;;
36855;SDS011;22788;51.434;6.786;2023-03-13T05:33:02;3.77;;;2.70;;
36855;SDS011;22788;51.434;6.786;2023-03-13T05:35:28;5.23;;;3.57;;
36855;SDS011;22788;51.434;6.786;2023-03-13T05:37:54;6.10;;;2.80;;
36855;SDS011;22788;51.434;6.786;2023-03-13T05:40:20;3.87;;;3.23;;
36855;SDS011;22788;51.434;6.786;2023-03-13T05:42:46;5.60;;;3.07;;
36855;SDS011;22788;51.434;6.786;2023-03-13T05:45:12;8.57;;;4.60;;
36855;SDS011;22788;51.434;6.786;2023-03-13T05:47:38;7.57;;;3.73;;
36855;SDS011;22788;51.434;6.786;2023-03-13T05:50:07;5.80;;;3.67;;
36855;SDS011;22788;51.434;6.786;2023-03-13T05:52:34;5.60;;;3.07;;
36855;SDS011;22788;51.434;6.786;2023-03-13T05:55:00;5.20;;;3.40;;
36855;SDS011;22788;51.434;6.786;2023-03-13T05:57:26;6.90;;;3.83;;
36855;SDS011;22788;51.434;6.786;2023-03-13T05:59:52;7.43;;;3.73;;
36855;SDS011;22788;51.434;6.786;2023-03-13T06:02:18;6.13;;;3.10;;
36855;SDS011;22788;51.434;6.786;2023-03-13T06:04:44;6.60;;;3.77;;
36855;SDS011;22788;51.434;6.786;2023-03-13T06:07:12;6.70;;;3.97;;
36855;SDS011;22788;51.434;6.786;2023-03-13T06:09:38;6.63;;;3.70;;
36855;SDS011;22788;51.434;6.786;2023-03-13T06:12:04;4.07;;;3.20;;
36855;SDS011;22788;51.434;6.786;2023-03-13T06:14:31;9.20;;;3.70;;
36855;SDS011;22788;51.434;6.786;2023-03-13T06:16:57;5.10;;;3.20;;
36855;SDS011;22788;51.434;6.786;2023-03-13T06:19:23;6.37;;;4.07;;
36855;SDS011;22788;51.434;6.786;2023-03-13T06:21:49;6.63;;;3.80;;
36855;SDS011;22788;51.434;6.786;2023-03-13T06:24:16;5.80;;;3.03;;
36855;SDS011;22788;51.434;6.786;2023-03-13T06:26:43;4.50;;;3.50;;
36855;SDS011;22788;51.434;6.786;2023-03-13T06:29:09;6.07;;;3.37;;
36855;SDS011;22788;51.434;6.786;2023-03-13T06:31:35;6.77;;;4.07;;
36855;SDS011;22788;51.434;6.786;2023-03-13T06:34:01;5.20;;;3.20;;
36855;SDS011;22788;51.434;6.786;2023-03-13T06:36:27;4.97;;;3.47;;
36855;SDS011;22788;51.434;6.786;2023-03-13T06:38:53;6.40;;;3.67;;
36855;SDS011;22788;51.434;6.786;2023-03-13T06:41:21;6.67;;;3.33;;
36855;SDS011;22788;51.434;6.786;2023-03-13T06:43:47;5.37;;;3.10;;
36855;SDS011;22788;51.434;6.786;2023-03-13T06:46:15;4.87;;;3.50;;
36855;SDS011;22788;51.434;6.786;2023-03-13T06:48:42;6.83;;;4.47;;
36855;SDS011;22788;51.434;6.786;2023-03-13T06:51:09;5.90;;;3.28;;
36855;SDS011;22788;51.434;6.786;2023-03-13T06:53:36;6.57;;;3.80;;
36855;SDS011;22788;51.434;6.786;2023-03-13T06:56:02;6.93;;;3.20;;
36855;SDS011;22788;51.434;6.786;2023-03-13T06:58:30;11.57;;;4.63;;
36855;SDS011;22788;51.434;6.786;2023-03-13T07:00:56;8.17;;;4.50;;
36855;SDS011;22788;51.434;6.786;2023-03-13T07:03:22;5.47;;;3.87;;
36855;SDS011;22788;51.434;6.786;2023-03-13T07:05:53;8.87;;;3.90;;
36855;SDS011;22788;51.434;6.786;2023-03-13T07:08:20;6.73;;;4.13;;
36855;SDS011;22788;51.434;6.786;2023-03-13T07:10:46;8.53;;;4.30;;
36855;SDS011;22788;51.434;6.786;2023-03-13T07:13:12;14.80;;;6.60;;
36855;SDS011;22788;51.434;6.786;2023-03-13T07:15:39;13.50;;;5.70;;
36855;SDS011;22788;51.434;6.786;2023-03-13T07:18:05;12.90;;;6.85;;
36855;SDS011;22788;51.434;6.786;2023-03-13T07:20:31;12.83;;;6.27;;
36855;SDS011;22788;51.434;6.786;2023-03-13T07:22:57;11.90;;;5.47;;
36855;SDS011;22788;51.434;6.786;2023-03-13T07:25:23;13.07;;;5.80;;
36855;SDS011;22788;51.434;6.786;2023-03-13T07:27:50;11.87;;;5.17;;
36855;SDS011;22788;51.434;6.786;2023-03-13T07:30:16;13.77;;;5.57;;
36855;SDS011;22788;51.434;6.786;2023-03-13T07:32:44;10.10;;;5.10;;
36855;SDS011;22788;51.434;6.786;2023-03-13T07:35:10;13.07;;;5.30;;
36855;SDS011;22788;51.434;6.786;2023-03-13T07:37:36;13.33;;;6.40;;
36855;SDS011;22788;51.434;6.786;2023-03-13T07:40:02;9.70;;;4.60;;
36855;SDS011;22788;51.434;6.786;2023-03-13T07:42:29;8.93;;;5.07;;
36855;SDS011;22788;51.434;6.786;2023-03-13T07:44:55;10.40;;;4.93;;
36855;SDS011;22788;51.434;6.786;2023-03-13T07:47:21;9.53;;;5.67;;
36855;SDS011;22788;51.434;6.786;2023-03-13T07:49:48;10.60;;;5.40;;
36855;SDS011;22788;51.434;6.786;2023-03-13T07:52:14;9.40;;;4.50;;
36855;SDS011;22788;51.434;6.786;2023-03-13T07:54:40;7.07;;;4.60;;
36855;SDS011;22788;51.434;6.786;2023-03-13T07:57:07;12.80;;;4.90;;
36855;SDS011;22788;51.434;6.786;2023-03-13T07:59:33;11.40;;;5.50;;
36855;SDS011;22788;51.434;6.786;2023-03-13T08:01:59;9.37;;;4.57;;
36855;SDS011;22788;51.434;6.786;2023-03-13T08:04:25;9.23;;;4.00;;
36855;SDS011;22788;51.434;6.786;2023-03-13T08:06:52;7.60;;;4.30;;
36855;SDS011;22788;51.434;6.786;2023-03-13T08:09:18;11.80;;;4.50;;
36855;SDS011;22788;51.434;6.786;2023-03-13T08:11:44;12.13;;;4.43;;
36855;SDS011;22788;51.434;6.786;2023-03-13T08:14:10;12.73;;;5.10;;
36855;SDS011;22788;51.434;6.786;2023-03-13T08:16:36;9.40;;;4.50;;
36855;SDS011;22788;51.434;6.786;2023-03-13T08:19:03;10.70;;;4.73;;
36855;SDS011;22788;51.434;6.786;2023-03-13T08:21:30;8.80;;;4.27;;
36855;SDS011;22788;51.434;6.786;2023-03-13T08:23:59;7.40;;;4.33;;
36855;SDS011;22788;51.434;6.786;2023-03-13T08:26:26;8.33;;;4.63;;
36855;SDS011;22788;51.434;6.786;2023-03-13T08:28:54;10.53;;;4.47;;
36855;SDS011;22788;51.434;6.786;2023-03-13T08:31:22;7.13;;;3.90;;
36855;SDS011;22788;51.434;6.786;2023-03-13T08:33:49;7.50;;;3.97;;
36855;SDS011;22788;51.434;6.786;2023-03-13T08:36:17;9.50;;;4.13;;
36855;SDS011;22788;51.434;6.786;2023-03-13T08:38:45;7.67;;;3.90;;
36855;SDS011;22788;51.434;6.786;2023-03-13T08:41:14;6.70;;;3.70;;
36855;SDS011;22788;51.434;6.786;2023-03-13T08:43:41;10.93;;;3.80;;
36855;SDS011;22788;51.434;6.786;2023-03-13T08:46:07;7.57;;;3.97;;
36855;SDS011;22788;51.434;6.786;2023-03-13T08:48:33;8.43;;;3.63;;
36855;SDS011;22788;51.434;6.786;2023-03-13T08:51:00;6.80;;;4.03;;
36855;SDS011;22788;51.434;6.786;2023-03-13T08:53:27;5.07;;;3.37;;
36855;SDS011;22788;51.434;6.786;2023-03-13T08:55:53;10.67;;;3.90;;
36855;SDS011;22788;51.434;6.786;2023-03-13T08:58:21;6.10;;;3.73;;
36855;SDS011;22788;51.434;6.786;2023-03-13T09:00:47;7.30;;;4.27;;
36855;SDS011;22788;51.434;6.786;2023-03-13T09:03:13;6.80;;;3.10;;
36855;SDS011;22788;51.434;6.786;2023-03-13T09:05:39;7.03;;;4.03;;
36855;SDS011;22788;51.434;6.786;2023-03-13T09:08:05;6.63;;;3.50;;
36855;SDS011;22788;51.434;6.786;2023-03-13T09:10:31;8.43;;;4.13;;
36855;SDS011;22788;51.434;6.786;2023-03-13T09:12:57;6.37;;;3.70;;
36855;SDS011;22788;51.434;6.786;2023-03-13T09:15:25;11.37;;;4.33;;
36855;SDS011;22788;51.434;6.786;2023-03-13T09:17:51;5.77;;;3.60;;
36855;SDS011;22788;51.434;6.786;2023-03-13T09:20:17;13.13;;;3.80;;
36855;SDS011;22788;51.434;6.786;2023-03-13T09:22:43;12.00;;;4.57;;
36855;SDS011;22788;51.434;6.786;2023-03-13T09:25:10;8.67;;;4.03;;
36855;SDS011;22788;51.434;6.786;2023-03-13T09:27:36;8.27;;;4.60;;
36855;SDS011;22788;51.434;6.786;2023-03-13T09:30:02;9.83;;;5.00;;
36855;SDS011;22788;51.434;6.786;2023-03-13T09:32:30;7.67;;;4.47;;
36855;SDS011;22788;51.434;6.786;2023-03-13T09:34:56;10.53;;;4.13;;
36855;SDS011;22788;51.434;6.786;2023-03-13T09:37:23;7.97;;;4.10;;
36855;SDS011;22788;51.434;6.786;2023-03-13T09:39:49;9.00;;;4.70;;
36855;SDS011;22788;51.434;6.786;2023-03-13T09:42:16;10.17;;;3.77;;
36855;SDS011;22788;51.434;6.786;2023-03-13T09:44:45;9.00;;;3.60;;
36855;SDS011;22788;51.434;6.786;2023-03-13T09:47:17;8.03;;;4.43;;
36855;SDS011;22788;51.434;6.786;2023-03-13T09:49:50;6.20;;;3.90;;
36855;SDS011;22788;51.434;6.786;2023-03-13T09:52:20;10.17;;;4.00;;
36855;SDS011;22788;51.434;6.786;2023-03-13T09:54:49;8.10;;;4.97;;
36855;SDS011;22788;51.434;6.786;2023-03-13T09:57:21;8.03;;;3.97;;
36855;SDS011;22788;51.434;6.786;2023-03-13T09:59:54;8.30;;;3.80;;
36855;SDS011;22788;51.434;6.786;2023-03-13T10:02:28;11.07;;;4.47;;
36855;SDS011;22788;51.434;6.786;2023-03-13T10:05:04;10.23;;;3.67;;
36855;SDS011;22788;51.434;6.786;2023-03-13T10:07:35;8.87;;;3.80;;
36855;SDS011;22788;51.434;6.786;2023-03-13T10:10:02;7.10;;;4.43;;
36855;SDS011;22788;51.434;6.786;2023-03-13T10:12:33;8.03;;;3.80;;
36855;SDS011;22788;51.434;6.786;2023-03-13T10:15:14;8.50;;;3.97;;
36855;SDS011;22788;51.434;6.786;2023-03-13T10:17:42;8.57;;;4.57;;
36855;SDS011;22788;51.434;6.786;2023-03-13T10:20:15;8.53;;;3.90;;
36855;SDS011;22788;51.434;6.786;2023-03-13T10:22:46;11.63;;;4.10;;
36855;SDS011;22788;51.434;6.786;2023-03-13T10:25:18;6.67;;;3.90;;
36855;SDS011;22788;51.434;6.786;2023-03-13T10:27:51;9.60;;;4.90;;
36855;SDS011;22788;51.434;6.786;2023-03-13T10:30:19;10.57;;;4.10;;
36855;SDS011;22788;51.434;6.786;2023-03-13T10:32:48;5.40;;;4.07;;
36855;SDS011;22788;51.434;6.786;2023-03-13T10:35:20;6.10;;;4.10;;
36855;SDS011;22788;51.434;6.786;2023-03-13T10:37:48;8.47;;;4.03;;
36855;SDS011;22788;51.434;6.786;2023-03-13T10:40:19;7.70;;;3.90;;
36855;SDS011;22788;51.434;6.786;2023-03-13T10:42:46;9.13;;;4.23;;
36855;SDS011;22788;51.434;6.786;2023-03-13T10:45:13;9.33;;;3.50;;
36855;SDS011;22788;51.434;6.786;2023-03-13T10:47:41;7.23;;;3.20;;
36855;SDS011;22788;51.434;6.786;2023-03-13T10:50:11;5.00;;;3.33;;
36855;SDS011;22788;51.434;6.786;2023-03-13T10:52:44;9.00;;;3.73;;
36855;SDS011;22788;51.434;6.786;2023-03-13T10:55:12;8.03;;;3.53;;
36855;SDS011;22788;51.434;6.786;2023-03-13T10:57:41;5.40;;;3.97;;
36855;SDS011;22788;51.434;6.786;2023-03-13T11:00:22;6.57;;;3.60;;
36855;SDS011;22788;51.434;6.786;2023-03-13T11:02:55;11.10;;;4.70;;
36855;SDS011;22788;51.434;6.786;2023-03-13T11:05:32;6.73;;;3.60;;
36855;SDS011;22788;51.434;6.786;2023-03-13T11:08:17;7.63;;;3.27;;
36855;SDS011;22788;51.434;6.786;2023-03-13T11:10:50;5.77;;;3.83;;
36855;SDS011;22788;51.434;6.786;2023-03-13T11:13:25;5.33;;;3.50;;
36855;SDS011;22788;51.434;6.786;2023-03-13T11:15:59;4.97;;;2.97;;
36855;SDS011;22788;51.434;6.786;2023-03-13T11:18:31;4.97;;;3.87;;
36855;SDS011;22788;51.434;6.786;2023-03-13T11:21:07;5.70;;;3.03;;
36855;SDS011;22788;51.434;6.786;2023-03-13T11:23:44;7.23;;;2.93;;
36855;SDS011;22788;51.434;6.786;2023-03-13T11:26:15;4.50;;;3.23;;
36855;SDS011;22788;51.434;6.786;2023-03-13T11:28:49;8.10;;;3.60;;
36855;SDS011;22788;51.434;6.786;2023-03-13T11:31:22;7.07;;;3.00;;
36855;SDS011;22788;51.434;6.786;2023-03-13T11:33:53;4.60;;;3.13;;
36855;SDS011;22788;51.434;6.786;2023-03-13T11:36:25;5.07;;;2.90;;
36855;SDS011;22788;51.434;6.786;2023-03-13T11:39:01;5.23;;;2.43;;
36855;SDS011;22788;51.434;6.786;2023-03-13T11:41:39;6.93;;;3.00;;
36855;SDS011;22788;51.434;6.786;2023-03-13T11:44:21;4.90;;;2.60;;
36855;SDS011;22788;51.434;6.786;2023-03-13T11:46:57;3.57;;;2.23;;
36855;SDS011;22788;51.434;6.786;2023-03-13T11:49:33;4.67;;;2.53;;
36855;SDS011;22788;51.434;6.786;2023-03-13T11:52:11;5.27;;;2.27;;
36855;SDS011;22788;51.434;6.786;2023-03-13T11:57:43;2.93;;;2.20;;
36855;SDS011;22788;51.434;6.786;2023-03-13T12:00:21;5.97;;;1.93;;
36855;SDS011;22788;51.434;6.786;2023-03-13T12:02:55;5.13;;;2.20;;
36855;SDS011;22788;51.434;6.786;2023-03-13T12:05:25;3.77;;;2.20;;
36855;SDS011;22788;51.434;6.786;2023-03-13T12:07:55;2.63;;;1.80;;
36855;SDS011;22788;51.434;6.786;2023-03-13T12:10:28;5.13;;;2.53;;
36855;SDS011;22788;51.434;6.786;2023-03-13T12:12:59;2.50;;;2.00;;
36855;SDS011;22788;51.434;6.786;2023-03-13T12:15:30;3.80;;;2.00;;
36855;SDS011;22788;51.434;6.786;2023-03-13T12:18:01;2.87;;;2.00;;
36855;SDS011;22788;51.434;6.786;2023-03-13T12:20:33;4.17;;;2.00;;
36855;SDS011;22788;51.434;6.786;2023-03-13T12:23:13;3.57;;;1.80;;
36855;SDS011;22788;51.434;6.786;2023-03-13T12:25:45;3.47;;;1.50;;
36855;SDS011;22788;51.434;6.786;2023-03-13T12:28:19;2.13;;;1.47;;
36855;SDS011;22788;51.434;6.786;2023-03-13T12:30:51;3.07;;;1.80;;
36855;SDS011;22788;51.434;6.786;2023-03-13T12:33:23;1.93;;;1.47;;
36855;SDS011;22788;51.434;6.786;2023-03-13T12:35:55;1.50;;;1.40;;
36855;SDS011;22788;51.434;6.786;2023-03-13T12:38:29;2.53;;;1.70;;
36855;SDS011;22788;51.434;6.786;2023-03-13T12:41:03;2.10;;;1.60;;
36855;SDS011;22788;51.434;6.786;2023-03-13T12:43:38;2.60;;;1.63;;
36855;SDS011;22788;51.434;6.786;2023-03-13T12:46:11;2.23;;;1.60;;
36855;SDS011;22788;51.434;6.786;2023-03-13T12:49:02;2.90;;;2.00;;
36855;SDS011;22788;51.434;6.786;2023-03-13T12:51:59;2.70;;;1.63;;
36855;SDS011;22788;51.434;6.786;2023-03-13T12:54:40;2.50;;;1.40;;
36855;SDS011;22788;51.434;6.786;2023-03-13T12:57:22;4.03;;;1.40;;
36855;SDS011;22788;51.434;6.786;2023-03-13T13:00:15;5.03;;;1.47;;
36855;SDS011;22788;51.434;6.786;2023-03-13T13:02:45;1.80;;;1.60;;
36855;SDS011;22788;51.434;6.786;2023-03-13T13:05:16;3.53;;;1.20;;
36855;SDS011;22788;51.434;6.786;2023-03-13T13:07:50;2.43;;;1.30;;
36855;SDS011;22788;51.434;6.786;2023-03-13T13:10:19;2.43;;;1.30;;
36855;SDS011;22788;51.434;6.786;2023-03-13T13:13:15;2.03;;;1.30;;
36855;SDS011;22788;51.434;6.786;2023-03-13T13:15:34;1.50;;;1.23;;
36855;SDS011;22788;51.434;6.786;2023-03-13T13:18:02;1.87;;;1.20;;
36855;SDS011;22788;51.434;6.786;2023-03-13T13:20:32;1.40;;;1.30;;
36855;SDS011;22788;51.434;6.786;2023-03-13T13:25:39;2.50;;;1.23;;
36855;SDS011;22788;51.434;6.786;2023-03-13T13:30:48;3.90;;;1.30;;
36855;SDS011;22788;51.434;6.786;2023-03-13T13:38:50;2.27;;;1.30;;
36855;SDS011;22788;51.434;6.786;2023-03-13T13:41:24;1.43;;;1.20;;
36855;SDS011;22788;51.434;6.786;2023-03-13T13:46:44;2.03;;;1.10;;
36855;SDS011;22788;51.434;6.786;2023-03-13T13:49:12;2.67;;;1.43;;
36855;SDS011;22788;51.434;6.786;2023-03-13T13:51:39;3.87;;;1.47;;
36855;SDS011;22788;51.434;6.786;2023-03-13T13:54:27;1.60;;;1.50;;
36855;SDS011;22788;51.434;6.786;2023-03-13T13:56:56;1.63;;;1.23;;
36855;SDS011;22788;51.434;6.786;2023-03-13T13:59:28;1.90;;;1.33;;
36855;SDS011;22788;51.434;6.786;2023-03-13T14:04:42;2.00;;;1.30;;
36855;SDS011;22788;51.434;6.786;2023-03-13T14:07:11;1.47;;;1.30;;
36855;SDS011;22788;51.434;6.786;2023-03-13T14:09:42;1.67;;;1.53;;
36855;SDS011;22788;51.434;6.786;2023-03-13T14:12:25;1.20;;;1.13;;
36855;SDS011;22788;51.434;6.786;2023-03-13T14:15:04;1.93;;;1.43;;
36855;SDS011;22788;51.434;6.786;2023-03-13T14:17:36;1.50;;;1.40;;
36855;SDS011;22788;51.434;6.786;2023-03-13T14:20:05;2.23;;;1.30;;
36855;SDS011;22788;51.434;6.786;2023-03-13T14:22:43;1.57;;;1.43;;
36855;SDS011;22788;51.434;6.786;2023-03-13T14:25:09;1.83;;;1.30;;
36855;SDS011;22788;51.434;6.786;2023-03-13T14:27:41;2.77;;;1.27;;
36855;SDS011;22788;51.434;6.786;2023-03-13T14:30:08;3.77;;;1.23;;
36855;SDS011;22788;51.434;6.786;2023-03-13T14:32:34;2.97;;;1.60;;
36855;SDS011;22788;51.434;6.786;2023-03-13T14:35:00;2.37;;;1.77;;
36855;SDS011;22788;51.434;6.786;2023-03-13T14:37:33;2.87;;;1.87;;
36855;SDS011;22788;51.434;6.786;2023-03-13T14:40:04;1.47;;;1.20;;
36855;SDS011;22788;51.434;6.786;2023-03-13T14:42:36;2.47;;;1.47;;
36855;SDS011;22788;51.434;6.786;2023-03-13T14:45:11;2.20;;;1.60;;
36855;SDS011;22788;51.434;6.786;2023-03-13T14:47:38;2.37;;;1.67;;
36855;SDS011;22788;51.434;6.786;2023-03-13T14:50:08;2.40;;;1.77;;
36855;SDS011;22788;51.434;6.786;2023-03-13T14:52:37;2.97;;;1.60;;
36855;SDS011;22788;51.434;6.786;2023-03-13T14:55:23;2.10;;;1.27;;
36855;SDS011;22788;51.434;6.786;2023-03-13T14:57:54;2.00;;;1.80;;
36855;SDS011;22788;51.434;6.786;2023-03-13T15:00:26;2.50;;;1.63;;
36855;SDS011;22788;51.434;6.786;2023-03-13T15:05:34;4.00;;;1.57;;
36855;SDS011;22788;51.434;6.786;2023-03-13T15:08:02;1.97;;;1.50;;
36855;SDS011;22788;51.434;6.786;2023-03-13T15:10:30;1.77;;;1.37;;
36855;SDS011;22788;51.434;6.786;2023-03-13T15:12:57;1.60;;;1.50;;
36855;SDS011;22788;51.434;6.786;2023-03-13T15:15:23;2.27;;;1.40;;
36855;SDS011;22788;51.434;6.786;2023-03-13T15:17:50;3.50;;;1.53;;